Sunday, November 18, 2018, 2:45 PM GMT
Back to Local

CYKF, Waterloo Well

Location: , , Canada Lat: 43.467
Local Time: 2:45 PM GMT (14:45 GMT) Lon: -80.383
Time Zone: GMT Elev: 1040 ft

Show me the last for .
Show Decoded

2018-11-18 14:00 METAR CYKF 181400Z AUTO 12002KT 9SM OVC035 M02/M06 A3026 RMK SLP265 =
2018-11-18 13:00 METAR CYKF 181300Z AUTO 15003KT 9SM OVC033 M02/M06 A3026 RMK SLP265 =
2018-11-18 12:00 METAR CYKF 181200Z AUTO 15004KT 9SM OVC035 M02/M05 A3026 RMK SLP265 =
2018-11-18 11:00 METAR CYKF 181100Z AUTO 16003KT 9SM OVC039 M03/M05 A3027 RMK SLP267 =
2018-11-18 10:00 METAR CYKF 181000Z AUTO 08002KT 9SM OVC041 M04/M05 A3027 RMK SLP268 =
2018-11-18 09:00 METAR CYKF 180900Z AUTO 00000KT 9SM OVC043 M04/M05 A3028 RMK SLP269 =
2018-11-18 08:00 METAR CYKF 180800Z AUTO 12003KT 9SM OVC043 M04/M05 A3028 RMK SLP271 =
2018-11-18 07:00 METAR CYKF 180700Z AUTO 00000KT 9SM OVC043 M03/M05 A3029 RMK SLP272 =
2018-11-18 06:00 METAR CYKF 180600Z AUTO 00000KT 9SM OVC045 M03/M05 A3029 RMK SLP274 =
2018-11-18 05:00 METAR CYKF 180500Z AUTO 22002KT 9SM OVC045 M02/M05 A3029 RMK SLP273 =
2018-11-18 04:00 METAR CYKF 180400Z AUTO 00000KT 9SM OVC047 M03/M05 A3029 RMK SLP271 =
2018-11-18 03:00 METAR CYKF 180300Z AUTO 29003KT 9SM OVC045 M02/M05 A3030 RMK SLP274 =
2018-11-18 02:00 METAR CYKF 180200Z AUTO 28003KT 9SM OVC045 M02/M04 A3029 RMK SLP271 =
2018-11-18 01:13 METAR CYKF 180113Z AUTO 36002KT 9SM SCT020 BKN025 OVC049 M02/M05 A3028 RMK
                 SLP270 =
2018-11-18 01:00 METAR CYKF 180100Z AUTO 01003KT 9SM BKN020 OVC025 M02/M04 A3029 RMK SLP271 =
2018-11-18 00:47 METAR CYKF 180047Z AUTO 32002KT 9SM BKN021 OVC026 M02/M04 A3029 RMK SLP271 =
2018-11-18 00:22 METAR CYKF 180022Z AUTO 32003KT 9SM -SN BKN023 BKN028 OVC050 M02/M04 A3028 RMK
                 SLP270 =
2018-11-18 00:20 METAR CYKF 180020Z AUTO 31004KT 9SM -SN SCT021 BKN028 OVC050 M02/M04 A3028 RMK
                 SLP270 =
2018-11-18 00:17 METAR CYKF 180017Z AUTO 32003KT 9SM -SN BKN023 BKN028 OVC050 M02/M04 A3028 RMK
                 SLP270 =
2018-11-18 00:14 METAR CYKF 180014Z AUTO 31004KT 9SM -SN SCT023 BKN028 OVC050 M02/M04 A3028 RMK
                 SLP270 =
2018-11-18 00:09 METAR CYKF 180009Z AUTO 31004KT 9SM -SN BKN023 OVC050 M02/M04 A3028 RMK SLP269 =
2018-11-18 00:00 METAR CYKF 180000Z AUTO 32004KT 280V340 9SM -SN FEW021 OVC050 M02/M04 A3028 RMK
                 SLP268 =
2018-11-17 23:54 METAR CYKF 172354Z AUTO 29003KT 280V340 9SM -SN SCT024 OVC050 M02/M04 A3027 RMK
                 SLP267 =
2018-11-17 23:46 METAR CYKF 172346Z AUTO 31004KT 9SM -SN BKN022 BKN033 OVC048 M02/M04 A3028 RMK
                 SLP268 =
2018-11-17 23:45 METAR CYKF 172345Z AUTO 30004KT 9SM BKN022 BKN033 OVC048 M02/M04 A3028 RMK
                 SLP268 =
2018-11-17 23:40 METAR CYKF 172340Z AUTO 32003KT 9SM SCT022 BKN027 BKN033 OVC048 M02/M04 A3028
                 RMK SLP268 =
2018-11-17 23:00 METAR CYKF 172300Z AUTO 29005KT 9SM -SN FEW031 OVC048 M01/M04 A3026 RMK SLP264 =
2018-11-17 22:00 METAR CYKF 172200Z AUTO 31006KT 9SM -SN FEW025 SCT035 OVC050 M01/M05 A3023 RMK
                 SLP252 =
2018-11-17 21:28 METAR CYKF 172128Z AUTO 33009KT 9SM -SN BKN025 BKN034 OVC043 M01/M04 A3023 RMK
                 SLP249 =
2018-11-17 21:25 METAR CYKF 172125Z AUTO 33007KT 9SM -SN BKN023 BKN029 OVC040 M01/M04 A3022 RMK
                 SLP247 =
2018-11-17 21:24 METAR CYKF 172124Z AUTO 33006KT 9SM -SN BKN025 BKN035 OVC042 M01/M04 A3022 RMK
                 SLP247 =
2018-11-17 21:00 METAR CYKF 172100Z AUTO 33007KT 9SM FEW022 BKN030 OVC042 M01/M04 A3021 RMK
                 SLP244 =
2018-11-17 20:52 METAR CYKF 172052Z AUTO 33008KT 280V340 9SM SCT022 BKN030 OVC036 M00/M04 A3021
                 RMK SLP243 =
2018-11-17 20:26 METAR CYKF 172026Z AUTO 29012KT 9SM BKN022 BKN030 OVC038 M00/M04 A3020 RMK
                 SLP241 =
2018-11-17 20:00 METAR CYKF 172000Z AUTO 30010G15KT 9SM FEW021 OVC035 M00/M04 A3019 RMK SLP236 =
2018-11-17 19:33 METAR CYKF 171933Z AUTO 29012KT 9SM SCT026 OVC038 00/M04 A3018 RMK SLP233 =
2018-11-17 19:24 METAR CYKF 171924Z AUTO 29009KT 9SM -SN SCT024 BKN029 OVC035 00/M04 A3018 RMK
                 SLP233 =
2018-11-17 19:00 METAR CYKF 171900Z AUTO 30009G15KT 9SM -SN FEW018 OVC024 M00/M03 A3017 RMK
                 SLP231 =
2018-11-17 18:43 METAR CYKF 171843Z AUTO 30009G17KT 8SM -SN BKN018 BKN023 OVC031 M00/M03 A3017
                 RMK SLP230 =
2018-11-17 18:37 METAR CYKF 171837Z AUTO 31009G17KT 9SM -RASN BKN018 BKN023 OVC028 M00/M03 A3017
                 RMK SLP230 =
2018-11-17 18:33 METAR CYKF 171833Z AUTO 30011G16KT 9SM -RA BKN020 BKN028 OVC033 M00/M03 A3017
                 RMK SLP230 =
2018-11-17 18:29 METAR CYKF 171829Z AUTO 30011G16KT 9SM BKN022 BKN028 OVC033 00/M04 A3017 RMK
                 SLP229 =
2018-11-17 18:00 METAR CYKF 171800Z AUTO 28014G19KT 9SM OVC035 00/M04 A3016 RMK SLP225 =
2018-11-17 17:00 METAR CYKF 171700Z AUTO 28012G17KT 9SM FEW025 OVC033 01/M04 A3016 RMK SLP225 =
2018-11-17 16:00 METAR CYKF 171600Z AUTO 30013KT 9SM OVC033 00/M04 A3016 RMK SLP225 =
2018-11-17 15:00 METAR CYKF 171500Z AUTO 28011KT 9SM OVC031 00/M04 A3015 RMK SLP223 =

Support USWX by starting your Amazon purchase here.